sensor_id;sensor_type;location;lat;lon;timestamp;P1;durP1;ratioP1;P2;durP2;ratioP2
53654;SDS011;39558;52.028;8.536;2024-01-15T00:00:39;2.70;;;1.20;;
53654;SDS011;39558;52.028;8.536;2024-01-15T00:03:05;2.13;;;1.08;;
53654;SDS011;39558;52.028;8.536;2024-01-15T00:05:31;2.63;;;1.17;;
53654;SDS011;39558;52.028;8.536;2024-01-15T00:07:57;2.17;;;1.00;;
53654;SDS011;39558;52.028;8.536;2024-01-15T00:10:23;1.95;;;1.10;;
53654;SDS011;39558;52.028;8.536;2024-01-15T00:12:49;2.08;;;1.10;;
53654;SDS011;39558;52.028;8.536;2024-01-15T00:15:15;2.38;;;1.38;;
53654;SDS011;39558;52.028;8.536;2024-01-15T00:17:40;1.85;;;0.93;;
53654;SDS011;39558;52.028;8.536;2024-01-15T00:20:06;3.20;;;1.30;;
53654;SDS011;39558;52.028;8.536;2024-01-15T00:22:33;2.78;;;1.17;;
53654;SDS011;39558;52.028;8.536;2024-01-15T00:25:00;1.50;;;0.63;;
53654;SDS011;39558;52.028;8.536;2024-01-15T00:27:26;3.17;;;1.10;;
53654;SDS011;39558;52.028;8.536;2024-01-15T00:29:52;3.15;;;1.33;;
53654;SDS011;39558;52.028;8.536;2024-01-15T00:32:19;2.90;;;1.30;;
53654;SDS011;39558;52.028;8.536;2024-01-15T00:34:45;2.65;;;1.13;;
53654;SDS011;39558;52.028;8.536;2024-01-15T00:37:11;2.50;;;1.20;;
53654;SDS011;39558;52.028;8.536;2024-01-15T00:39:37;3.05;;;1.10;;
53654;SDS011;39558;52.028;8.536;2024-01-15T00:42:02;2.10;;;0.95;;
53654;SDS011;39558;52.028;8.536;2024-01-15T00:44:28;2.67;;;1.23;;
53654;SDS011;39558;52.028;8.536;2024-01-15T00:46:54;2.58;;;1.20;;
53654;SDS011;39558;52.028;8.536;2024-01-15T00:49:20;1.92;;;1.05;;
53654;SDS011;39558;52.028;8.536;2024-01-15T00:51:46;1.90;;;0.95;;
53654;SDS011;39558;52.028;8.536;2024-01-15T00:54:12;1.95;;;0.90;;
53654;SDS011;39558;52.028;8.536;2024-01-15T00:56:38;1.65;;;0.85;;
53654;SDS011;39558;52.028;8.536;2024-01-15T00:59:04;2.90;;;1.10;;
53654;SDS011;39558;52.028;8.536;2024-01-15T01:01:30;2.00;;;1.10;;
53654;SDS011;39558;52.028;8.536;2024-01-15T01:03:56;1.42;;;0.93;;
53654;SDS011;39558;52.028;8.536;2024-01-15T01:06:22;1.33;;;0.90;;
53654;SDS011;39558;52.028;8.536;2024-01-15T01:08:48;2.67;;;1.10;;
53654;SDS011;39558;52.028;8.536;2024-01-15T01:11:14;1.60;;;1.00;;
53654;SDS011;39558;52.028;8.536;2024-01-15T01:13:40;2.30;;;1.00;;
53654;SDS011;39558;52.028;8.536;2024-01-15T01:16:06;2.38;;;0.95;;
53654;SDS011;39558;52.028;8.536;2024-01-15T01:18:32;1.48;;;0.73;;
53654;SDS011;39558;52.028;8.536;2024-01-15T01:20:58;1.70;;;0.90;;
53654;SDS011;39558;52.028;8.536;2024-01-15T01:23:23;2.92;;;1.33;;
53654;SDS011;39558;52.028;8.536;2024-01-15T01:25:49;2.40;;;1.05;;
53654;SDS011;39558;52.028;8.536;2024-01-15T01:28:15;3.22;;;1.00;;
53654;SDS011;39558;52.028;8.536;2024-01-15T01:30:41;2.78;;;1.15;;
53654;SDS011;39558;52.028;8.536;2024-01-15T01:33:07;2.70;;;1.20;;
53654;SDS011;39558;52.028;8.536;2024-01-15T01:35:33;1.63;;;0.82;;
53654;SDS011;39558;52.028;8.536;2024-01-15T01:37:59;2.33;;;1.00;;
53654;SDS011;39558;52.028;8.536;2024-01-15T01:40:25;2.00;;;0.93;;
53654;SDS011;39558;52.028;8.536;2024-01-15T01:42:50;1.75;;;0.93;;
53654;SDS011;39558;52.028;8.536;2024-01-15T01:45:16;1.38;;;0.85;;
53654;SDS011;39558;52.028;8.536;2024-01-15T01:47:42;2.08;;;0.80;;
53654;SDS011;39558;52.028;8.536;2024-01-15T01:50:08;2.95;;;0.98;;
53654;SDS011;39558;52.028;8.536;2024-01-15T01:52:34;2.92;;;1.30;;
53654;SDS011;39558;52.028;8.536;2024-01-15T01:55:01;1.60;;;0.80;;
53654;SDS011;39558;52.028;8.536;2024-01-15T01:57:27;1.70;;;0.93;;
53654;SDS011;39558;52.028;8.536;2024-01-15T01:59:54;1.73;;;0.82;;
53654;SDS011;39558;52.028;8.536;2024-01-15T02:02:20;1.95;;;0.82;;
53654;SDS011;39558;52.028;8.536;2024-01-15T02:04:46;2.00;;;0.90;;
53654;SDS011;39558;52.028;8.536;2024-01-15T02:07:12;2.75;;;1.20;;
53654;SDS011;39558;52.028;8.536;2024-01-15T02:09:38;2.20;;;0.70;;
53654;SDS011;39558;52.028;8.536;2024-01-15T02:12:04;1.55;;;0.88;;
53654;SDS011;39558;52.028;8.536;2024-01-15T02:14:30;2.25;;;0.88;;
53654;SDS011;39558;52.028;8.536;2024-01-15T02:16:56;1.95;;;0.85;;
53654;SDS011;39558;52.028;8.536;2024-01-15T02:19:22;1.40;;;0.70;;
53654;SDS011;39558;52.028;8.536;2024-01-15T02:21:48;1.83;;;0.70;;
53654;SDS011;39558;52.028;8.536;2024-01-15T02:24:14;2.38;;;0.80;;
53654;SDS011;39558;52.028;8.536;2024-01-15T02:26:40;1.77;;;0.90;;
53654;SDS011;39558;52.028;8.536;2024-01-15T02:29:09;1.45;;;0.80;;
53654;SDS011;39558;52.028;8.536;2024-01-15T02:31:35;1.90;;;0.77;;
53654;SDS011;39558;52.028;8.536;2024-01-15T02:34:01;1.70;;;0.73;;
53654;SDS011;39558;52.028;8.536;2024-01-15T02:36:27;2.10;;;1.00;;
53654;SDS011;39558;52.028;8.536;2024-01-15T02:38:53;2.00;;;1.00;;
53654;SDS011;39558;52.028;8.536;2024-01-15T02:41:19;1.52;;;0.68;;
53654;SDS011;39558;52.028;8.536;2024-01-15T02:43:45;2.13;;;1.08;;
53654;SDS011;39558;52.028;8.536;2024-01-15T02:46:11;1.05;;;0.60;;
53654;SDS011;39558;52.028;8.536;2024-01-15T02:48:36;3.03;;;0.88;;
53654;SDS011;39558;52.028;8.536;2024-01-15T02:51:02;1.52;;;0.80;;
53654;SDS011;39558;52.028;8.536;2024-01-15T02:53:28;1.55;;;0.82;;
53654;SDS011;39558;52.028;8.536;2024-01-15T02:55:54;1.83;;;0.80;;
53654;SDS011;39558;52.028;8.536;2024-01-15T02:58:21;1.45;;;0.80;;
53654;SDS011;39558;52.028;8.536;2024-01-15T03:00:46;2.42;;;1.10;;
53654;SDS011;39558;52.028;8.536;2024-01-15T03:03:12;1.50;;;0.80;;
53654;SDS011;39558;52.028;8.536;2024-01-15T03:05:38;1.92;;;0.75;;
53654;SDS011;39558;52.028;8.536;2024-01-15T03:08:04;1.13;;;0.63;;
53654;SDS011;39558;52.028;8.536;2024-01-15T03:10:30;2.05;;;1.00;;
53654;SDS011;39558;52.028;8.536;2024-01-15T03:12:57;1.98;;;0.60;;
53654;SDS011;39558;52.028;8.536;2024-01-15T03:15:22;1.45;;;0.68;;
53654;SDS011;39558;52.028;8.536;2024-01-15T03:17:48;0.70;;;0.50;;
53654;SDS011;39558;52.028;8.536;2024-01-15T03:20:14;1.55;;;0.60;;
53654;SDS011;39558;52.028;8.536;2024-01-15T03:22:40;1.40;;;0.60;;
53654;SDS011;39558;52.028;8.536;2024-01-15T03:25:06;1.73;;;0.60;;
53654;SDS011;39558;52.028;8.536;2024-01-15T03:27:32;1.73;;;0.73;;
53654;SDS011;39558;52.028;8.536;2024-01-15T03:29:58;1.23;;;0.75;;
53654;SDS011;39558;52.028;8.536;2024-01-15T03:32:24;1.08;;;0.55;;
53654;SDS011;39558;52.028;8.536;2024-01-15T03:34:50;1.50;;;0.60;;
53654;SDS011;39558;52.028;8.536;2024-01-15T03:37:17;1.52;;;0.73;;
53654;SDS011;39558;52.028;8.536;2024-01-15T03:39:43;1.48;;;0.65;;
53654;SDS011;39558;52.028;8.536;2024-01-15T03:42:09;2.08;;;0.80;;
53654;SDS011;39558;52.028;8.536;2024-01-15T03:44:34;1.02;;;0.60;;
53654;SDS011;39558;52.028;8.536;2024-01-15T03:47:00;1.45;;;0.70;;
53654;SDS011;39558;52.028;8.536;2024-01-15T03:49:26;3.03;;;1.30;;
53654;SDS011;39558;52.028;8.536;2024-01-15T03:51:52;1.52;;;0.63;;
53654;SDS011;39558;52.028;8.536;2024-01-15T03:54:18;1.85;;;0.73;;
53654;SDS011;39558;52.028;8.536;2024-01-15T03:56:44;1.27;;;0.80;;
53654;SDS011;39558;52.028;8.536;2024-01-15T03:59:10;2.40;;;0.80;;
53654;SDS011;39558;52.028;8.536;2024-01-15T04:01:35;1.60;;;0.70;;
53654;SDS011;39558;52.028;8.536;2024-01-15T04:04:01;4.00;;;0.60;;
53654;SDS011;39558;52.028;8.536;2024-01-15T04:06:27;2.42;;;0.60;;
53654;SDS011;39558;52.028;8.536;2024-01-15T04:08:53;1.42;;;0.95;;
53654;SDS011;39558;52.028;8.536;2024-01-15T04:11:19;1.83;;;0.80;;
53654;SDS011;39558;52.028;8.536;2024-01-15T04:13:45;2.40;;;0.90;;
53654;SDS011;39558;52.028;8.536;2024-01-15T04:16:11;2.35;;;0.90;;
53654;SDS011;39558;52.028;8.536;2024-01-15T04:18:37;2.05;;;0.60;;
53654;SDS011;39558;52.028;8.536;2024-01-15T04:21:04;2.55;;;0.90;;
53654;SDS011;39558;52.028;8.536;2024-01-15T04:23:30;1.75;;;0.68;;
53654;SDS011;39558;52.028;8.536;2024-01-15T04:25:56;1.70;;;0.57;;
53654;SDS011;39558;52.028;8.536;2024-01-15T04:28:22;1.50;;;0.75;;
53654;SDS011;39558;52.028;8.536;2024-01-15T04:30:48;2.00;;;0.77;;
53654;SDS011;39558;52.028;8.536;2024-01-15T04:33:14;1.13;;;0.60;;
53654;SDS011;39558;52.028;8.536;2024-01-15T04:35:40;2.17;;;0.93;;
53654;SDS011;39558;52.028;8.536;2024-01-15T04:38:06;2.60;;;0.93;;
53654;SDS011;39558;52.028;8.536;2024-01-15T04:40:32;1.95;;;0.80;;
53654;SDS011;39558;52.028;8.536;2024-01-15T04:42:57;1.13;;;0.57;;
53654;SDS011;39558;52.028;8.536;2024-01-15T04:45:23;2.10;;;0.68;;
53654;SDS011;39558;52.028;8.536;2024-01-15T04:47:53;3.13;;;1.13;;
53654;SDS011;39558;52.028;8.536;2024-01-15T04:50:19;1.33;;;0.70;;
53654;SDS011;39558;52.028;8.536;2024-01-15T04:52:45;2.53;;;0.70;;
53654;SDS011;39558;52.028;8.536;2024-01-15T04:55:10;2.25;;;0.80;;
53654;SDS011;39558;52.028;8.536;2024-01-15T04:57:36;2.55;;;0.70;;
53654;SDS011;39558;52.028;8.536;2024-01-15T05:00:02;2.53;;;0.68;;
53654;SDS011;39558;52.028;8.536;2024-01-15T05:02:28;3.17;;;0.95;;
53654;SDS011;39558;52.028;8.536;2024-01-15T05:04:54;1.27;;;0.50;;
53654;SDS011;39558;52.028;8.536;2024-01-15T05:07:20;2.33;;;0.77;;
53654;SDS011;39558;52.028;8.536;2024-01-15T05:09:46;1.50;;;0.70;;
53654;SDS011;39558;52.028;8.536;2024-01-15T05:12:12;1.27;;;0.50;;
53654;SDS011;39558;52.028;8.536;2024-01-15T05:14:38;2.92;;;0.60;;
53654;SDS011;39558;52.028;8.536;2024-01-15T05:17:04;2.03;;;0.70;;
53654;SDS011;39558;52.028;8.536;2024-01-15T05:19:30;0.95;;;0.40;;
53654;SDS011;39558;52.028;8.536;2024-01-15T05:21:56;2.08;;;0.80;;
53654;SDS011;39558;52.028;8.536;2024-01-15T05:24:22;1.33;;;0.60;;
53654;SDS011;39558;52.028;8.536;2024-01-15T05:26:48;2.38;;;0.70;;
53654;SDS011;39558;52.028;8.536;2024-01-15T05:29:13;2.45;;;0.70;;
53654;SDS011;39558;52.028;8.536;2024-01-15T05:31:39;1.60;;;0.60;;
53654;SDS011;39558;52.028;8.536;2024-01-15T05:34:05;1.77;;;0.82;;
53654;SDS011;39558;52.028;8.536;2024-01-15T05:36:31;0.95;;;0.40;;
53654;SDS011;39558;52.028;8.536;2024-01-15T05:38:57;2.58;;;0.70;;
53654;SDS011;39558;52.028;8.536;2024-01-15T05:41:23;1.75;;;0.45;;
53654;SDS011;39558;52.028;8.536;2024-01-15T05:43:49;1.27;;;0.50;;
53654;SDS011;39558;52.028;8.536;2024-01-15T05:46:15;1.52;;;0.70;;
53654;SDS011;39558;52.028;8.536;2024-01-15T05:48:41;2.55;;;0.80;;
53654;SDS011;39558;52.028;8.536;2024-01-15T05:51:07;1.55;;;0.50;;
53654;SDS011;39558;52.028;8.536;2024-01-15T05:53:33;1.52;;;0.75;;
53654;SDS011;39558;52.028;8.536;2024-01-15T05:55:59;1.67;;;0.70;;
53654;SDS011;39558;52.028;8.536;2024-01-15T05:58:26;1.15;;;0.55;;
53654;SDS011;39558;52.028;8.536;2024-01-15T06:00:52;2.05;;;0.70;;
53654;SDS011;39558;52.028;8.536;2024-01-15T06:03:17;2.85;;;0.90;;
53654;SDS011;39558;52.028;8.536;2024-01-15T06:05:43;2.65;;;0.50;;
53654;SDS011;39558;52.028;8.536;2024-01-15T06:08:09;2.70;;;0.52;;
53654;SDS011;39558;52.028;8.536;2024-01-15T06:10:35;1.40;;;0.60;;
53654;SDS011;39558;52.028;8.536;2024-01-15T06:13:01;1.48;;;0.35;;
53654;SDS011;39558;52.028;8.536;2024-01-15T06:15:27;2.22;;;0.63;;
53654;SDS011;39558;52.028;8.536;2024-01-15T06:17:53;2.08;;;0.60;;
53654;SDS011;39558;52.028;8.536;2024-01-15T06:20:19;2.05;;;0.88;;
53654;SDS011;39558;52.028;8.536;2024-01-15T06:22:45;1.67;;;0.47;;
53654;SDS011;39558;52.028;8.536;2024-01-15T06:25:11;2.50;;;0.52;;
53654;SDS011;39558;52.028;8.536;2024-01-15T06:27:37;2.47;;;0.63;;
53654;SDS011;39558;52.028;8.536;2024-01-15T06:30:03;1.35;;;0.50;;
53654;SDS011;39558;52.028;8.536;2024-01-15T06:32:29;1.77;;;0.55;;
53654;SDS011;39558;52.028;8.536;2024-01-15T06:34:55;2.80;;;0.63;;
53654;SDS011;39558;52.028;8.536;2024-01-15T06:37:21;1.85;;;0.57;;
53654;SDS011;39558;52.028;8.536;2024-01-15T06:39:47;0.73;;;0.30;;
53654;SDS011;39558;52.028;8.536;2024-01-15T06:42:13;1.23;;;0.70;;
53654;SDS011;39558;52.028;8.536;2024-01-15T06:44:39;2.08;;;0.50;;
53654;SDS011;39558;52.028;8.536;2024-01-15T06:47:05;2.58;;;0.70;;
53654;SDS011;39558;52.028;8.536;2024-01-15T06:49:31;2.95;;;0.60;;
53654;SDS011;39558;52.028;8.536;2024-01-15T06:51:57;3.53;;;0.50;;
53654;SDS011;39558;52.028;8.536;2024-01-15T06:54:22;3.88;;;0.63;;
53654;SDS011;39558;52.028;8.536;2024-01-15T06:56:48;2.08;;;0.68;;
53654;SDS011;39558;52.028;8.536;2024-01-15T06:59:15;2.08;;;0.75;;
53654;SDS011;39558;52.028;8.536;2024-01-15T07:01:41;2.35;;;0.50;;
53654;SDS011;39558;52.028;8.536;2024-01-15T07:04:07;2.38;;;0.60;;
53654;SDS011;39558;52.028;8.536;2024-01-15T07:06:33;1.38;;;0.43;;
53654;SDS011;39558;52.028;8.536;2024-01-15T07:08:59;2.90;;;0.70;;
53654;SDS011;39558;52.028;8.536;2024-01-15T07:11:25;3.45;;;0.70;;
53654;SDS011;39558;52.028;8.536;2024-01-15T07:13:51;2.38;;;0.60;;
53654;SDS011;39558;52.028;8.536;2024-01-15T07:16:17;2.05;;;0.52;;
53654;SDS011;39558;52.028;8.536;2024-01-15T07:18:43;2.88;;;0.70;;
53654;SDS011;39558;52.028;8.536;2024-01-15T07:21:09;2.40;;;0.40;;
53654;SDS011;39558;52.028;8.536;2024-01-15T07:23:34;1.98;;;0.50;;
53654;SDS011;39558;52.028;8.536;2024-01-15T07:26:00;2.88;;;0.52;;
53654;SDS011;39558;52.028;8.536;2024-01-15T07:28:28;0.98;;;0.40;;
53654;SDS011;39558;52.028;8.536;2024-01-15T07:30:54;2.20;;;0.70;;
53654;SDS011;39558;52.028;8.536;2024-01-15T07:33:20;2.65;;;0.43;;
53654;SDS011;39558;52.028;8.536;2024-01-15T07:35:46;2.05;;;0.57;;
53654;SDS011;39558;52.028;8.536;2024-01-15T07:38:12;3.30;;;0.50;;
53654;SDS011;39558;52.028;8.536;2024-01-15T07:40:38;1.50;;;0.40;;
53654;SDS011;39558;52.028;8.536;2024-01-15T07:43:04;2.60;;;0.52;;
53654;SDS011;39558;52.028;8.536;2024-01-15T07:45:30;1.60;;;0.38;;
53654;SDS011;39558;52.028;8.536;2024-01-15T07:47:56;2.70;;;0.88;;
53654;SDS011;39558;52.028;8.536;2024-01-15T07:50:22;1.77;;;0.40;;
53654;SDS011;39558;52.028;8.536;2024-01-15T07:52:48;3.78;;;0.73;;
53654;SDS011;39558;52.028;8.536;2024-01-15T07:55:14;2.85;;;0.70;;
53654;SDS011;39558;52.028;8.536;2024-01-15T07:57:40;1.70;;;0.60;;
53654;SDS011;39558;52.028;8.536;2024-01-15T08:00:06;3.80;;;0.75;;
53654;SDS011;39558;52.028;8.536;2024-01-15T08:02:34;2.38;;;0.40;;
53654;SDS011;39558;52.028;8.536;2024-01-15T08:04:59;4.65;;;0.60;;
53654;SDS011;39558;52.028;8.536;2024-01-15T08:07:25;2.25;;;0.63;;
53654;SDS011;39558;52.028;8.536;2024-01-15T08:09:52;1.98;;;0.50;;
53654;SDS011;39558;52.028;8.536;2024-01-15T08:12:18;8.18;;;0.65;;
53654;SDS011;39558;52.028;8.536;2024-01-15T08:14:44;2.20;;;0.68;;
53654;SDS011;39558;52.028;8.536;2024-01-15T08:17:10;1.20;;;0.30;;
53654;SDS011;39558;52.028;8.536;2024-01-15T08:19:36;4.97;;;0.85;;
53654;SDS011;39558;52.028;8.536;2024-01-15T08:22:02;2.92;;;0.52;;
53654;SDS011;39558;52.028;8.536;2024-01-15T08:24:28;2.78;;;0.57;;
53654;SDS011;39558;52.028;8.536;2024-01-15T08:26:54;2.28;;;0.45;;
53654;SDS011;39558;52.028;8.536;2024-01-15T08:29:21;3.20;;;0.50;;
53654;SDS011;39558;52.028;8.536;2024-01-15T08:31:46;2.10;;;0.60;;
53654;SDS011;39558;52.028;8.536;2024-01-15T08:34:12;2.63;;;0.60;;
53654;SDS011;39558;52.028;8.536;2024-01-15T08:36:38;1.65;;;0.47;;
53654;SDS011;39558;52.028;8.536;2024-01-15T08:39:05;3.53;;;0.77;;
53654;SDS011;39558;52.028;8.536;2024-01-15T08:41:32;1.83;;;0.50;;
53654;SDS011;39558;52.028;8.536;2024-01-15T08:43:58;1.05;;;0.60;;
53654;SDS011;39558;52.028;8.536;2024-01-15T08:46:23;2.28;;;0.50;;
53654;SDS011;39558;52.028;8.536;2024-01-15T08:48:49;2.47;;;0.60;;
53654;SDS011;39558;52.028;8.536;2024-01-15T08:51:16;1.77;;;0.50;;
53654;SDS011;39558;52.028;8.536;2024-01-15T08:53:43;1.50;;;0.30;;
53654;SDS011;39558;52.028;8.536;2024-01-15T08:56:09;2.20;;;0.50;;
53654;SDS011;39558;52.028;8.536;2024-01-15T08:58:35;2.13;;;0.60;;
53654;SDS011;39558;52.028;8.536;2024-01-15T09:01:01;2.25;;;0.50;;
53654;SDS011;39558;52.028;8.536;2024-01-15T09:03:27;3.25;;;0.52;;
53654;SDS011;39558;52.028;8.536;2024-01-15T09:05:53;2.58;;;0.60;;
53654;SDS011;39558;52.028;8.536;2024-01-15T09:08:19;1.75;;;0.50;;
53654;SDS011;39558;52.028;8.536;2024-01-15T09:10:45;2.72;;;0.60;;
53654;SDS011;39558;52.028;8.536;2024-01-15T09:13:11;2.50;;;0.50;;
53654;SDS011;39558;52.028;8.536;2024-01-15T09:15:37;2.40;;;0.40;;
53654;SDS011;39558;52.028;8.536;2024-01-15T09:18:03;2.40;;;0.50;;
53654;SDS011;39558;52.028;8.536;2024-01-15T09:20:30;2.63;;;0.50;;
53654;SDS011;39558;52.028;8.536;2024-01-15T09:22:56;3.25;;;0.35;;
53654;SDS011;39558;52.028;8.536;2024-01-15T09:25:21;3.78;;;0.60;;
53654;SDS011;39558;52.028;8.536;2024-01-15T09:27:47;2.92;;;1.13;;
53654;SDS011;39558;52.028;8.536;2024-01-15T09:30:13;1.85;;;0.52;;
53654;SDS011;39558;52.028;8.536;2024-01-15T09:32:40;1.95;;;0.40;;
53654;SDS011;39558;52.028;8.536;2024-01-15T09:35:06;2.55;;;0.70;;
53654;SDS011;39558;52.028;8.536;2024-01-15T09:37:32;2.22;;;0.65;;
53654;SDS011;39558;52.028;8.536;2024-01-15T09:39:58;2.80;;;0.40;;
53654;SDS011;39558;52.028;8.536;2024-01-15T09:42:24;1.65;;;0.40;;
53654;SDS011;39558;52.028;8.536;2024-01-15T09:44:50;5.30;;;0.50;;
53654;SDS011;39558;52.028;8.536;2024-01-15T09:47:16;2.00;;;0.38;;
53654;SDS011;39558;52.028;8.536;2024-01-15T09:49:43;1.15;;;0.28;;
53654;SDS011;39558;52.028;8.536;2024-01-15T09:52:09;1.10;;;0.40;;
53654;SDS011;39558;52.028;8.536;2024-01-15T09:54:36;2.15;;;0.40;;
53654;SDS011;39558;52.028;8.536;2024-01-15T09:57:02;1.58;;;0.47;;
53654;SDS011;39558;52.028;8.536;2024-01-15T09:59:28;1.65;;;0.50;;
53654;SDS011;39558;52.028;8.536;2024-01-15T10:01:55;2.10;;;0.43;;
53654;SDS011;39558;52.028;8.536;2024-01-15T10:04:21;1.50;;;0.30;;
53654;SDS011;39558;52.028;8.536;2024-01-15T10:06:48;3.33;;;1.02;;
53654;SDS011;39558;52.028;8.536;2024-01-15T10:09:17;1.05;;;0.30;;
53654;SDS011;39558;52.028;8.536;2024-01-15T10:11:43;1.38;;;0.40;;
53654;SDS011;39558;52.028;8.536;2024-01-15T10:14:10;2.20;;;0.80;;
53654;SDS011;39558;52.028;8.536;2024-01-15T10:16:39;1.25;;;0.30;;
53654;SDS011;39558;52.028;8.536;2024-01-15T10:19:05;1.33;;;0.20;;
53654;SDS011;39558;52.028;8.536;2024-01-15T10:21:32;1.92;;;0.38;;
53654;SDS011;39558;52.028;8.536;2024-01-15T10:24:01;2.80;;;0.50;;
53654;SDS011;39558;52.028;8.536;2024-01-15T10:26:30;1.70;;;0.60;;
53654;SDS011;39558;52.028;8.536;2024-01-15T10:28:58;2.33;;;0.82;;
53654;SDS011;39558;52.028;8.536;2024-01-15T10:31:25;1.35;;;0.30;;
53654;SDS011;39558;52.028;8.536;2024-01-15T10:33:51;2.83;;;0.50;;
53654;SDS011;39558;52.028;8.536;2024-01-15T10:36:17;2.72;;;0.40;;
53654;SDS011;39558;52.028;8.536;2024-01-15T10:38:43;1.70;;;0.30;;
53654;SDS011;39558;52.028;8.536;2024-01-15T10:41:09;2.03;;;0.57;;
53654;SDS011;39558;52.028;8.536;2024-01-15T10:43:35;1.75;;;0.40;;
53654;SDS011;39558;52.028;8.536;2024-01-15T10:46:01;1.98;;;0.32;;
53654;SDS011;39558;52.028;8.536;2024-01-15T10:48:28;0.93;;;0.20;;
53654;SDS011;39558;52.028;8.536;2024-01-15T10:50:56;1.65;;;0.30;;
53654;SDS011;39558;52.028;8.536;2024-01-15T10:53:22;1.75;;;0.30;;
53654;SDS011;39558;52.028;8.536;2024-01-15T10:55:48;1.58;;;0.30;;
53654;SDS011;39558;52.028;8.536;2024-01-15T10:58:16;2.45;;;0.57;;
53654;SDS011;39558;52.028;8.536;2024-01-15T11:00:42;1.88;;;0.30;;
53654;SDS011;39558;52.028;8.536;2024-01-15T11:03:08;1.92;;;0.40;;
53654;SDS011;39558;52.028;8.536;2024-01-15T11:05:37;3.08;;;0.65;;
53654;SDS011;39558;52.028;8.536;2024-01-15T11:08:05;2.40;;;0.63;;
53654;SDS011;39558;52.028;8.536;2024-01-15T11:11:05;0.50;;;0.15;;
53654;SDS011;39558;52.028;8.536;2024-01-15T11:15:59;1.67;;;0.30;;
53654;SDS011;39558;52.028;8.536;2024-01-15T11:18:26;0.73;;;0.10;;
53654;SDS011;39558;52.028;8.536;2024-01-15T11:21:34;2.03;;;0.45;;
53654;SDS011;39558;52.028;8.536;2024-01-15T11:23:45;1.52;;;0.30;;
53654;SDS011;39558;52.028;8.536;2024-01-15T11:28:56;1.48;;;0.28;;
53654;SDS011;39558;52.028;8.536;2024-01-15T11:31:29;1.42;;;0.38;;
53654;SDS011;39558;52.028;8.536;2024-01-15T11:34:15;3.15;;;0.50;;
53654;SDS011;39558;52.028;8.536;2024-01-15T11:42:00;1.08;;;0.20;;
53654;SDS011;39558;52.028;8.536;2024-01-15T11:44:27;1.42;;;0.30;;
53654;SDS011;39558;52.028;8.536;2024-01-15T11:49:22;2.38;;;0.43;;
53654;SDS011;39558;52.028;8.536;2024-01-15T11:51:52;0.35;;;0.20;;
53654;SDS011;39558;52.028;8.536;2024-01-15T11:54:19;1.27;;;0.20;;
53654;SDS011;39558;52.028;8.536;2024-01-15T11:56:46;0.38;;;0.10;;
53654;SDS011;39558;52.028;8.536;2024-01-15T11:59:12;1.13;;;0.20;;
53654;SDS011;39558;52.028;8.536;2024-01-15T12:01:38;1.30;;;0.30;;
53654;SDS011;39558;52.028;8.536;2024-01-15T12:04:04;1.42;;;0.47;;
53654;SDS011;39558;52.028;8.536;2024-01-15T12:06:31;1.08;;;0.30;;
53654;SDS011;39558;52.028;8.536;2024-01-15T12:09:09;0.93;;;0.20;;
53654;SDS011;39558;52.028;8.536;2024-01-15T12:11:35;0.70;;;0.20;;
53654;SDS011;39558;52.028;8.536;2024-01-15T12:14:02;1.77;;;0.40;;
53654;SDS011;39558;52.028;8.536;2024-01-15T12:16:28;0.55;;;0.20;;
53654;SDS011;39558;52.028;8.536;2024-01-15T12:18:53;1.42;;;0.50;;
53654;SDS011;39558;52.028;8.536;2024-01-15T12:21:19;0.75;;;0.17;;
53654;SDS011;39558;52.028;8.536;2024-01-15T12:23:48;1.63;;;0.40;;
53654;SDS011;39558;52.028;8.536;2024-01-15T12:26:17;0.82;;;0.25;;
53654;SDS011;39558;52.028;8.536;2024-01-15T12:28:43;1.08;;;0.20;;
53654;SDS011;39558;52.028;8.536;2024-01-15T12:31:09;0.75;;;0.40;;
53654;SDS011;39558;52.028;8.536;2024-01-15T12:33:35;1.63;;;0.20;;
53654;SDS011;39558;52.028;8.536;2024-01-15T12:36:01;1.65;;;0.30;;
53654;SDS011;39558;52.028;8.536;2024-01-15T12:38:28;1.02;;;0.40;;
53654;SDS011;39558;52.028;8.536;2024-01-15T12:40:54;2.88;;;0.25;;
53654;SDS011;39558;52.028;8.536;2024-01-15T12:43:19;0.55;;;0.15;;
53654;SDS011;39558;52.028;8.536;2024-01-15T12:45:45;2.50;;;0.57;;
53654;SDS011;39558;52.028;8.536;2024-01-15T12:48:11;1.08;;;0.25;;
53654;SDS011;39558;52.028;8.536;2024-01-15T12:50:40;1.17;;;0.30;;
53654;SDS011;39558;52.028;8.536;2024-01-15T12:53:08;0.52;;;0.17;;
53654;SDS011;39558;52.028;8.536;2024-01-15T12:55:34;0.10;;;0.10;;
53654;SDS011;39558;52.028;8.536;2024-01-15T12:58:00;0.50;;;0.10;;
53654;SDS011;39558;52.028;8.536;2024-01-15T13:00:26;1.35;;;0.22;;
53654;SDS011;39558;52.028;8.536;2024-01-15T13:02:52;1.80;;;0.17;;
53654;SDS011;39558;52.028;8.536;2024-01-15T13:05:19;0.52;;;0.20;;
53654;SDS011;39558;52.028;8.536;2024-01-15T13:07:46;0.15;;;0.15;;
53654;SDS011;39558;52.028;8.536;2024-01-15T13:10:11;0.63;;;0.20;;
53654;SDS011;39558;52.028;8.536;2024-01-15T13:12:38;1.67;;;0.20;;
53654;SDS011;39558;52.028;8.536;2024-01-15T13:15:04;1.30;;;0.30;;
53654;SDS011;39558;52.028;8.536;2024-01-15T13:17:29;0.15;;;0.05;;
53654;SDS011;39558;52.028;8.536;2024-01-15T13:19:55;0.45;;;0.20;;
53654;SDS011;39558;52.028;8.536;2024-01-15T13:22:21;0.32;;;0.10;;
53654;SDS011;39558;52.028;8.536;2024-01-15T13:24:47;0.47;;;0.10;;
53654;SDS011;39558;52.028;8.536;2024-01-15T13:27:13;1.17;;;0.10;;
53654;SDS011;39558;52.028;8.536;2024-01-15T13:29:39;0.30;;;0.10;;
53654;SDS011;39558;52.028;8.536;2024-01-15T13:32:05;0.47;;;0.10;;
53654;SDS011;39558;52.028;8.536;2024-01-15T13:34:31;0.63;;;0.10;;
53654;SDS011;39558;52.028;8.536;2024-01-15T13:36:57;3.03;;;0.10;;
53654;SDS011;39558;52.028;8.536;2024-01-15T13:39:23;0.40;;;0.10;;
53654;SDS011;39558;52.028;8.536;2024-01-15T13:41:49;0.30;;;0.00;;
53654;SDS011;39558;52.028;8.536;2024-01-15T13:44:15;0.40;;;0.17;;
53654;SDS011;39558;52.028;8.536;2024-01-15T13:46:41;0.47;;;0.10;;
53654;SDS011;39558;52.028;8.536;2024-01-15T13:49:07;0.70;;;0.20;;
53654;SDS011;39558;52.028;8.536;2024-01-15T13:51:34;0.47;;;0.10;;
53654;SDS011;39558;52.028;8.536;2024-01-15T13:54:01;0.20;;;0.10;;
53654;SDS011;39558;52.028;8.536;2024-01-15T13:56:29;0.80;;;0.00;;
53654;SDS011;39558;52.028;8.536;2024-01-15T13:58:57;0.88;;;0.20;;
53654;SDS011;39558;52.028;8.536;2024-01-15T14:01:23;0.30;;;0.10;;
53654;SDS011;39558;52.028;8.536;2024-01-15T14:03:49;1.10;;;0.40;;
53654;SDS011;39558;52.028;8.536;2024-01-15T14:06:15;0.10;;;0.10;;
53654;SDS011;39558;52.028;8.536;2024-01-15T14:08:41;1.17;;;0.20;;
53654;SDS011;39558;52.028;8.536;2024-01-15T14:11:06;1.55;;;0.20;;
53654;SDS011;39558;52.028;8.536;2024-01-15T14:13:33;0.20;;;0.10;;
53654;SDS011;39558;52.028;8.536;2024-01-15T14:15:59;1.13;;;0.17;;
53654;SDS011;39558;52.028;8.536;2024-01-15T14:18:26;0.80;;;0.10;;
53654;SDS011;39558;52.028;8.536;2024-01-15T14:20:52;0.88;;;0.28;;
53654;SDS011;39558;52.028;8.536;2024-01-15T14:23:18;1.52;;;0.30;;
53654;SDS011;39558;52.028;8.536;2024-01-15T14:25:44;0.80;;;0.20;;
53654;SDS011;39558;52.028;8.536;2024-01-15T14:28:10;0.40;;;0.20;;
53654;SDS011;39558;52.028;8.536;2024-01-15T14:30:36;0.77;;;0.20;;
53654;SDS011;39558;52.028;8.536;2024-01-15T14:33:02;2.38;;;0.30;;
53654;SDS011;39558;52.028;8.536;2024-01-15T14:35:28;0.63;;;0.20;;
53654;SDS011;39558;52.028;8.536;2024-01-15T14:37:54;0.32;;;0.20;;
53654;SDS011;39558;52.028;8.536;2024-01-15T14:40:19;0.98;;;0.30;;
53654;SDS011;39558;52.028;8.536;2024-01-15T14:42:45;0.10;;;0.10;;
53654;SDS011;39558;52.028;8.536;2024-01-15T14:45:11;0.22;;;0.05;;
53654;SDS011;39558;52.028;8.536;2024-01-15T14:47:38;1.88;;;0.40;;
53654;SDS011;39558;52.028;8.536;2024-01-15T14:50:05;1.60;;;0.20;;
53654;SDS011;39558;52.028;8.536;2024-01-15T14:52:32;1.00;;;0.17;;
53654;SDS011;39558;52.028;8.536;2024-01-15T14:54:58;0.80;;;0.10;;